Time;durP1;ratioP1;P1;durP2;ratioP2;P2;SDS_P1;SDS_P2;PMS_P1;PMS_P2;Temp;Humidity;BMP_temperature;BMP_pressure;BME280_temperature;BME280_humidity;BME280_pressure;Samples;Min_cycle;Max_cycle;Signal;HPM_P1;HPM_P2
2023/10/27 00:01:03;;;;;;;31.98;22.67;;;;;;;10.58;100.00;99970.47;4910619;28;20429;-59
2023/10/27 00:03:33;;;;;;;32.25;22.10;;;;;;;10.67;100.00;99973.75;4913321;28;20878;-59
2023/10/27 00:06:04;;;;;;;31.02;21.42;;;;;;;10.68;100.00;99968.47;4948467;28;20066;-59
2023/10/27 00:08:35;;;;;;;30.80;21.20;;;;;;;10.66;100.00;99967.69;4938621;28;20113;-59
2023/10/27 00:11:07;;;;;;;30.52;21.83;;;;;;;10.66;100.00;99962.47;4942482;28;20058;-59
2023/10/27 00:13:38;;;;;;;31.35;20.80;;;;;;;10.63;100.00;99952.03;4919298;28;20130;-59
2023/10/27 00:16:11;;;;;;;28.55;20.50;;;;;;;10.48;100.00;99926.25;4929258;28;20043;-60
2023/10/27 00:18:41;;;;;;;30.80;21.35;;;;;;;10.65;100.00;99945.03;4919394;28;20129;-59
2023/10/27 00:21:12;;;;;;;29.33;21.02;;;;;;;10.63;100.00;99936.38;4929305;28;20490;-58
2023/10/27 00:23:42;;;;;;;31.02;20.83;;;;;;;10.78;100.00;99946.50;4919076;28;20093;-59
2023/10/27 00:26:14;;;;;;;30.10;20.67;;;;;;;10.80;100.00;99938.63;4932755;28;20059;-59
2023/10/27 00:28:46;;;;;;;28.95;20.83;;;;;;;10.92;100.00;99946.19;4938298;28;20047;-59
2023/10/27 00:31:16;;;;;;;29.35;20.85;;;;;;;11.02;100.00;99952.06;4937986;28;20050;-59
2023/10/27 00:33:47;;;;;;;32.17;23.52;;;;;;;11.10;100.00;99955.34;4947743;28;20081;-58
2023/10/27 00:36:17;;;;;;;31.13;21.83;;;;;;;11.11;100.00;99961.47;4937955;28;20145;-59
2023/10/27 00:38:50;;;;;;;28.20;20.27;;;;;;;11.04;100.00;99960.75;4947750;28;20740;-59
2023/10/27 00:41:23;;;;;;;26.30;18.35;;;;;;;11.00;100.00;99966.91;4924981;28;20062;-59
2023/10/27 00:43:54;;;;;;;23.45;18.17;;;;;;;10.99;100.00;99962.59;4929163;28;20074;-58
2023/10/27 00:46:24;;;;;;;23.40;17.27;;;;;;;11.03;100.00;99961.63;4918988;28;20067;-59
2023/10/27 00:48:56;;;;;;;22.08;16.85;;;;;;;11.05;100.00;99964.22;4928462;28;20059;-58
2023/10/27 00:51:27;;;;;;;21.23;16.15;;;;;;;11.04;100.00;99962.50;4918084;28;20051;-59
2023/10/27 00:53:58;;;;;;;21.77;15.23;;;;;;;11.02;100.00;99960.75;4928382;28;20070;-59
2023/10/27 00:56:31;;;;;;;18.35;13.90;;;;;;;11.07;100.00;99968.50;4919216;28;20070;-58
2023/10/27 00:59:01;;;;;;;16.73;11.30;;;;;;;11.12;100.00;99969.25;4928646;28;20489;-58
2023/10/27 01:01:32;;;;;;;15.38;10.30;;;;;;;11.13;100.00;99968.38;4918807;28;20137;-58
2023/10/27 01:04:02;;;;;;;18.98;12.30;;;;;;;11.15;100.00;99957.88;4928535;28;20059;-58
2023/10/27 01:06:33;;;;;;;14.27;10.10;;;;;;;11.18;100.00;99961.28;4919100;28;21137;-59
2023/10/27 01:09:04;;;;;;;15.93;10.90;;;;;;;11.21;100.00;99966.44;4928747;28;20449;-59
2023/10/27 01:11:35;;;;;;;14.65;9.95;;;;;;;10.70;100.00;99870.03;4919092;28;21787;-58
2023/10/27 01:14:06;;;;;;;13.75;10.38;;;;;;;11.26;100.00;99961.09;4928644;28;20055;-58
2023/10/27 01:16:36;;;;;;;16.77;10.07;;;;;;;11.29;100.00;99965.41;4918615;28;20051;-59
2023/10/27 01:19:06;;;;;;;14.02;9.98;;;;;;;11.28;100.00;99955.81;4927996;28;20078;-59
2023/10/27 01:21:37;;;;;;;13.73;9.75;;;;;;;11.28;100.00;99961.03;4918516;28;20055;-59
2023/10/27 01:24:10;;;;;;;13.13;9.30;;;;;;;11.29;100.00;99958.41;4927787;28;20051;-59
2023/10/27 01:26:40;;;;;;;13.73;9.63;;;;;;;11.31;100.00;99951.38;4919570;28;20133;-58
2023/10/27 01:29:11;;;;;;;13.88;9.98;;;;;;;11.35;100.00;99957.38;4947417;28;20440;-58
2023/10/27 01:31:41;;;;;;;12.73;9.77;;;;;;;11.38;100.00;99952.06;4936859;28;20055;-59
2023/10/27 01:34:11;;;;;;;17.10;10.68;;;;;;;11.37;100.00;99955.59;4946719;28;20047;-59
2023/10/27 01:36:42;;;;;;;15.25;10.10;;;;;;;11.32;100.00;99944.38;4936921;28;20055;-58
2023/10/27 01:39:14;;;;;;;18.13;12.05;;;;;;;11.36;100.00;99954.75;4930745;28;20069;-58
2023/10/27 01:41:44;;;;;;;18.42;11.55;;;;;;;11.31;100.00;99951.38;4915750;28;20075;-58
2023/10/27 01:44:15;;;;;;;18.15;12.80;;;;;;;11.01;100.00;99908.53;4918325;28;20139;-59
2023/10/27 01:46:45;;;;;;;25.17;13.50;;;;;;;11.26;100.00;99957.59;4927646;28;20043;-59
2023/10/27 01:49:16;;;;;;;20.63;13.07;;;;;;;11.22;100.00;99952.44;4917717;28;20653;-59
2023/10/27 01:51:46;;;;;;;24.30;13.23;;;;;;;11.21;100.00;99949.88;4927443;28;20077;-59
2023/10/27 01:54:18;;;;;;;19.48;13.00;;;;;;;11.19;100.00;99952.53;4917875;28;20134;-58
2023/10/27 01:56:49;;;;;;;21.83;14.57;;;;;;;11.22;100.00;99954.22;4926793;28;20497;-59
2023/10/27 01:59:19;;;;;;;22.55;14.73;;;;;;;11.20;100.00;99962.09;4917762;28;20055;-59
2023/10/27 02:01:49;;;;;;;27.98;15.27;;;;;;;11.20;100.00;99958.63;4927831;28;20051;-59
2023/10/27 02:04:20;;;;;;;25.73;15.43;;;;;;;11.19;100.00;99955.16;4917474;28;20055;-59
2023/10/27 02:06:50;;;;;;;23.17;15.35;;;;;;;11.17;100.00;99964.78;4927352;28;20478;-59
2023/10/27 02:09:22;;;;;;;23.70;13.88;;;;;;;10.86;100.00;99963.75;4917253;28;20063;-59
2023/10/27 02:11:53;;;;;;;23.30;12.50;;;;;;;10.29;100.00;99958.00;4926859;28;20047;-58
2023/10/27 02:14:23;;;;;;;21.45;13.40;;;;;;;9.95;100.00;99962.97;4915747;28;20142;-59
2023/10/27 02:16:53;;;;;;;23.40;13.65;;;;;;;9.74;100.00;99966.84;4924378;28;20158;-60
2023/10/27 02:19:24;;;;;;;23.33;13.10;;;;;;;9.59;100.00;99964.50;4917510;28;20063;-59
2023/10/27 02:21:54;;;;;;;28.55;14.10;;;;;;;9.40;100.00;99951.75;4927231;28;20062;-59
2023/10/27 02:24:26;;;;;;;18.65;12.48;;;;;;;9.45;100.00;99962.09;4915704;28;20110;-59
2023/10/27 02:26:58;;;;;;;16.73;11.98;;;;;;;9.37;100.00;99966.59;4930809;28;20086;-59
2023/10/27 02:29:28;;;;;;;17.88;11.95;;;;;;;9.36;100.00;99952.72;4917247;28;20146;-59
2023/10/27 02:31:58;;;;;;;17.25;11.80;;;;;;;9.35;100.00;99956.19;4927289;28;20537;-59
2023/10/27 02:34:29;;;;;;;15.18;11.27;;;;;;;9.35;100.00;99950.97;4917355;28;20065;-59
2023/10/27 02:36:59;;;;;;;18.58;11.20;;;;;;;9.37;100.00;99957.03;4926982;28;20397;-59
2023/10/27 02:39:32;;;;;;;17.45;10.75;;;;;;;9.40;100.00;99954.34;4917643;28;20078;-59
2023/10/27 02:42:02;;;;;;;16.08;10.85;;;;;;;9.44;100.00;99963.88;4927197;28;20505;-59
2023/10/27 02:44:32;;;;;;;15.02;10.80;;;;;;;9.25;100.00;99912.91;4917473;28;20052;-59
2023/10/27 02:47:03;;;;;;;14.38;9.20;;;;;;;9.50;100.00;99945.50;4927561;28;20051;-58
2023/10/27 02:49:33;;;;;;;13.38;8.85;;;;;;;9.53;100.00;99948.94;4917637;28;20051;-60
2023/10/27 02:52:03;;;;;;;12.52;8.93;;;;;;;9.52;100.00;99942.00;4930905;28;20050;-59
2023/10/27 02:54:35;;;;;;;13.68;9.25;;;;;;;9.58;100.00;99949.72;4911266;28;20056;-58
2023/10/27 02:57:06;;;;;;;12.73;8.95;;;;;;;9.69;100.00;99955.63;4926327;28;20405;-58
2023/10/27 02:59:37;;;;;;;10.80;8.10;;;;;;;9.81;100.00;99955.41;4916949;28;20047;-59
2023/10/27 03:02:07;;;;;;;13.70;8.75;;;;;;;9.92;100.00;99957.81;4927129;28;20051;-59
2023/10/27 03:04:38;;;;;;;13.30;8.63;;;;;;;9.92;100.00;99948.22;4916912;28;20059;-59
2023/10/27 03:07:08;;;;;;;11.90;8.75;;;;;;;9.90;100.00;99944.78;4926427;28;20394;-59
2023/10/27 03:09:40;;;;;;;10.18;7.40;;;;;;;9.89;100.00;99956.13;4898281;28;20232;-59
2023/10/27 03:12:09;;;;;;;11.38;7.72;;;;;;;9.91;100.00;99951.72;4922441;28;20256;-59
2023/10/27 03:14:40;;;;;;;10.35;8.07;;;;;;;9.92;100.00;99953.44;4917737;28;20062;-59
2023/10/27 03:17:10;;;;;;;12.23;7.50;;;;;;;9.90;100.00;99955.22;4930552;28;20055;-59
2023/10/27 03:19:40;;;;;;;8.80;6.38;;;;;;;9.85;100.00;99949.22;4920271;28;20057;-59
2023/10/27 03:22:11;;;;;;;8.52;7.00;;;;;;;9.86;100.00;99950.97;4930241;28;20047;-59
2023/10/27 03:24:43;;;;;;;10.93;6.93;;;;;;;9.92;100.00;99952.59;4919986;28;20055;-59
2023/10/27 03:27:14;;;;;;;13.00;7.32;;;;;;;9.93;100.00;99949.97;4940733;28;20065;-59
2023/10/27 03:29:45;;;;;;;11.57;7.22;;;;;;;9.75;100.00;99924.19;4948251;28;20085;-59
2023/10/27 03:32:16;;;;;;;8.35;6.80;;;;;;;9.83;100.00;99948.38;4920329;28;20054;-59
2023/10/27 03:34:46;;;;;;;9.32;6.80;;;;;;;9.81;100.00;99952.78;4930456;28;20428;-58
2023/10/27 03:37:17;;;;;;;10.70;6.78;;;;;;;9.80;100.00;99953.66;4919834;28;20063;-58
2023/10/27 03:39:49;;;;;;;9.27;7.00;;;;;;;9.81;100.00;99955.41;4929809;28;20074;-58
2023/10/27 03:42:19;;;;;;;9.38;6.72;;;;;;;9.78;100.00;99958.03;4919925;28;20378;-59
2023/10/27 03:44:50;;;;;;;10.73;6.80;;;;;;;9.76;100.00;99952.03;4929540;28;20055;-59
2023/10/27 03:47:20;;;;;;;10.75;7.45;;;;;;;9.75;100.00;99960.72;4920291;28;20075;-59
2023/10/27 03:49:50;;;;;;;9.27;7.20;;;;;;;9.76;100.00;99957.25;4929753;28;20051;-59
2023/10/27 03:52:21;;;;;;;11.73;8.35;;;;;;;9.78;100.00;99955.44;4920205;28;20110;-58
2023/10/27 03:54:53;;;;;;;10.60;7.32;;;;;;;9.85;100.00;99959.66;4929415;28;20431;-59
2023/10/27 03:57:24;;;;;;;13.32;8.80;;;;;;;9.87;100.00;99955.28;4920101;28;20987;-59
2023/10/27 03:59:54;;;;;;;11.57;7.88;;;;;;;9.96;100.00;99950.78;4929331;28;20062;-59
2023/10/27 04:02:25;;;;;;;12.25;8.88;;;;;;;10.00;100.00;99955.06;4919494;28;20067;-59
2023/10/27 04:04:56;;;;;;;12.48;8.13;;;;;;;10.04;100.00;99962.81;4929888;28;20082;-59
2023/10/27 04:07:27;;;;;;;14.52;8.82;;;;;;;10.05;100.00;99964.50;4919946;28;20150;-60
2023/10/27 04:09:59;;;;;;;17.30;9.27;;;;;;;10.11;100.00;99964.41;4929199;28;20055;-59
2023/10/27 04:12:30;;;;;;;14.20;9.40;;;;;;;10.12;100.00;99980.94;4919350;28;20059;-58
2023/10/27 04:15:00;;;;;;;13.63;9.02;;;;;;;10.09;100.00;99971.41;4929478;28;20067;-58
2023/10/27 04:17:31;;;;;;;15.48;9.95;;;;;;;10.06;100.00;99962.75;4919691;28;20091;-58
2023/10/27 04:20:03;;;;;;;13.43;9.43;;;;;;;10.10;100.00;99956.59;4929769;28;20383;-59
2023/10/27 04:22:34;;;;;;;13.75;9.70;;;;;;;10.22;100.00;99951.13;4920073;28;20391;-58
2023/10/27 04:25:06;;;;;;;14.80;10.13;;;;;;;10.35;100.00;99947.41;4928772;28;20141;-58
2023/10/27 04:27:37;;;;;;;13.38;8.98;;;;;;;10.36;100.00;99951.75;4919054;28;20063;-59
2023/10/27 04:30:11;;;;;;;14.93;9.20;;;;;;;10.39;100.00;99947.38;4928981;28;20381;-59
2023/10/27 04:32:42;;;;;;;18.00;9.30;;;;;;;10.43;100.00;99956.84;4919254;28;20055;-57
2023/10/27 04:35:13;;;;;;;18.55;9.98;;;;;;;10.41;100.00;99958.63;4929589;28;20055;-57
2023/10/27 04:37:44;;;;;;;16.40;10.50;;;;;;;10.40;100.00;99954.28;4918083;28;20145;-57
2023/10/27 04:40:16;;;;;;;14.75;10.27;;;;;;;10.42;100.00;99958.59;4923319;28;20055;-60
2023/10/27 04:42:46;;;;;;;15.40;9.93;;;;;;;10.38;100.00;99969.13;4928537;28;20307;-59
2023/10/27 04:45:17;;;;;;;14.77;9.95;;;;;;;10.44;100.00;99961.19;4918791;28;20063;-58
2023/10/27 04:47:48;;;;;;;17.20;10.52;;;;;;;10.50;100.00;99966.28;4928255;28;20142;-58
2023/10/27 04:50:19;;;;;;;13.60;9.60;;;;;;;10.46;100.00;99968.09;4900036;28;20044;-58
2023/10/27 04:52:49;;;;;;;18.15;10.90;;;;;;;10.44;100.00;99966.41;4910179;28;20114;-58
2023/10/27 04:55:22;;;;;;;16.73;11.50;;;;;;;10.45;100.00;99962.91;4900197;28;20059;-58
2023/10/27 04:57:52;;;;;;;14.50;10.40;;;;;;;10.51;100.00;99978.47;4912524;28;20043;-58
2023/10/27 05:00:23;;;;;;;19.23;11.05;;;;;;;10.30;100.00;99949.25;4907449;28;20143;-59
2023/10/27 05:02:53;;;;;;;16.33;10.55;;;;;;;10.54;100.00;99983.63;4927546;28;20051;-58
2023/10/27 05:05:24;;;;;;;19.33;11.63;;;;;;;10.54;100.00;99983.63;4918452;28;20664;-58
2023/10/27 05:07:56;;;;;;;20.05;12.10;;;;;;;10.55;100.00;99993.16;4927304;28;20047;-58
2023/10/27 05:10:28;;;;;;;18.05;11.75;;;;;;;10.56;100.00;99993.13;4917759;28;20069;-59
2023/10/27 05:13:00;;;;;;;17.95;12.20;;;;;;;10.53;100.00;99992.31;4927934;28;20594;-59
2023/10/27 05:15:31;;;;;;;21.95;12.60;;;;;;;10.47;100.00;99992.47;4919134;28;20090;-58
2023/10/27 05:18:05;;;;;;;18.92;13.07;;;;;;;10.42;100.00;99981.25;4928466;28;20421;-59
2023/10/27 05:20:39;;;;;;;22.08;11.68;;;;;;;10.47;100.00;99984.63;4921417;28;20149;-59
2023/10/27 05:23:10;;;;;;;18.10;12.70;;;;;;;10.55;100.00;99990.56;4934013;28;20082;-59
2023/10/27 05:25:42;;;;;;;20.13;11.55;;;;;;;10.58;100.00;99985.25;4927687;28;20090;-59
2023/10/27 05:28:13;;;;;;;25.13;12.80;;;;;;;10.55;100.00;99993.16;4917118;28;20423;-59
2023/10/27 05:30:46;;;;;;;24.92;12.77;;;;;;;10.57;100.00;99991.38;4917695;28;20057;-58
2023/10/27 05:33:17;;;;;;;18.17;12.40;;;;;;;10.62;100.00;99986.91;4918699;28;20043;-58
2023/10/27 05:35:48;;;;;;;19.13;12.65;;;;;;;10.56;100.00;99992.28;4927537;28;20082;-57
2023/10/27 05:38:19;;;;;;;19.33;12.60;;;;;;;10.55;100.00;99993.16;4910927;28;20055;-58
2023/10/27 05:40:51;;;;;;;21.08;12.43;;;;;;;10.52;100.00;99999.31;4917502;28;20146;-58
2023/10/27 05:43:22;;;;;;;19.65;12.18;;;;;;;10.54;100.00;99994.06;4930095;28;20087;-58
2023/10/27 05:45:53;;;;;;;20.95;12.68;;;;;;;10.58;100.00;100006.16;4917475;28;20161;-59
2023/10/27 05:48:23;;;;;;;19.65;12.60;;;;;;;10.56;100.00;99998.38;4903424;28;20142;-58
2023/10/27 05:50:54;;;;;;;19.02;11.73;;;;;;;10.63;100.00;100011.28;4908391;28;20060;-58
2023/10/27 05:53:25;;;;;;;19.65;12.18;;;;;;;10.60;100.00;100003.53;4911647;28;20115;-58
2023/10/27 05:55:58;;;;;;;19.60;13.30;;;;;;;10.58;100.00;100006.16;4928232;28;20065;-59
2023/10/27 05:58:32;;;;;;;19.92;12.40;;;;;;;10.53;100.00;100008.00;4915791;28;20094;-59
2023/10/27 06:01:04;;;;;;;23.77;12.10;;;;;;;10.46;100.00;100016.84;4930468;28;20051;-59
2023/10/27 06:03:35;;;;;;;22.15;11.68;;;;;;;10.16;100.00;99977.38;4917603;28;20052;-57
2023/10/27 06:06:06;;;;;;;19.95;11.13;;;;;;;10.33;100.00;100011.91;4927156;28;20043;-57
2023/10/27 06:08:42;;;;;;;22.50;11.98;;;;;;;10.29;100.00;100015.44;4917660;28;20153;-59
2023/10/27 06:11:15;;;;;;;22.48;12.00;;;;;;;10.30;100.00;100011.94;4928147;28;20062;-59
2023/10/27 06:13:45;;;;;;;23.17;11.93;;;;;;;10.29;100.00;100015.44;4916389;28;20059;-57
2023/10/27 06:16:16;;;;;;;19.35;12.40;;;;;;;10.30;100.00;100027.59;4921523;28;20054;-59
2023/10/27 06:18:46;;;;;;;25.83;12.05;;;;;;;10.24;100.00;100027.69;4935241;28;20142;-59
2023/10/27 06:21:17;;;;;;;18.50;11.93;;;;;;;10.12;100.00;100034.00;4923836;28;20516;-59
2023/10/27 06:23:47;;;;;;;22.95;11.65;;;;;;;10.05;100.00;100027.16;4934481;28;20043;-58
2023/10/27 06:26:20;;;;;;;19.35;11.27;;;;;;;10.05;100.00;100026.31;4926141;28;20078;-59
2023/10/27 06:28:50;;;;;;;18.95;11.50;;;;;;;10.02;100.00;100026.38;4933061;28;20137;-58
2023/10/27 06:31:21;;;;;;;21.17;12.55;;;;;;;10.05;100.00;100036.75;4926666;28;20054;-59
2023/10/27 06:33:54;;;;;;;21.40;12.02;;;;;;;9.78;100.00;99991.13;4934606;28;20042;-59
2023/10/27 06:36:25;;;;;;;18.00;10.80;;;;;;;9.96;100.00;100034.28;4925654;28;20077;-59
2023/10/27 06:38:55;;;;;;;18.58;11.20;;;;;;;9.89;100.00;100042.25;4936032;28;20829;-58
2023/10/27 06:41:27;;;;;;;19.30;12.25;;;;;;;9.72;100.00;100033.84;4911632;28;20055;-60
2023/10/27 06:43:58;;;;;;;17.45;10.43;;;;;;;9.38;100.00;100008.28;4924872;28;20102;-59
2023/10/27 06:46:28;;;;;;;16.33;10.20;;;;;;;9.54;100.00;100044.56;4910970;28;20264;-59
2023/10/27 06:48:59;;;;;;;16.25;9.02;;;;;;;9.34;100.00;100043.13;4928338;28;20484;-60
2023/10/27 06:51:29;;;;;;;19.50;8.10;;;;;;;9.12;100.00;100045.19;4921586;28;20504;-59
2023/10/27 06:54:00;;;;;;;12.23;6.85;;;;;;;8.94;100.00;100054.09;4931371;28;20155;-59
2023/10/27 06:56:32;;;;;;;11.65;6.57;;;;;;;8.74;100.00;100043.09;4921886;28;20047;-59
2023/10/27 06:59:03;;;;;;;19.10;7.05;;;;;;;8.40;100.00;100007.88;4924252;28;20047;-59
2023/10/27 07:01:34;;;;;;;18.83;6.63;;;;;;;8.58;100.00;100061.47;4902526;28;20135;-59
2023/10/27 07:04:06;;;;;;;15.75;6.28;;;;;;;8.50;100.00;100068.53;4911528;28;20142;-59
2023/10/27 07:06:37;;;;;;;13.07;6.30;;;;;;;8.45;100.00;100062.50;4901892;28;20055;-59
2023/10/27 07:09:07;;;;;;;12.45;6.72;;;;;;;8.41;100.00;100068.59;4911417;28;20051;-59
2023/10/27 07:11:39;;;;;;;20.27;6.43;;;;;;;8.38;100.00;100066.00;4901980;28;20130;-60
2023/10/27 07:14:14;;;;;;;15.50;6.95;;;;;;;8.35;100.00;100066.91;4914087;28;20521;-60
2023/10/27 07:16:45;;;;;;;15.70;6.10;;;;;;;8.34;100.00;100078.22;4909964;28;20051;-60
2023/10/27 07:19:15;;;;;;;13.93;6.30;;;;;;;8.33;100.00;100080.81;4915748;28;20418;-60
2023/10/27 07:21:49;;;;;;;15.60;6.32;;;;;;;8.32;100.00;100089.53;4925897;28;20976;-60
2023/10/27 07:24:20;;;;;;;14.60;6.40;;;;;;;8.37;100.00;100087.72;4915804;28;20057;-60
2023/10/27 07:26:52;;;;;;;13.75;6.05;;;;;;;8.37;100.00;100087.72;4925593;28;20588;-60
2023/10/27 07:29:23;;;;;;;17.67;7.25;;;;;;;8.31;100.00;100083.47;4915883;28;20078;-60
2023/10/27 07:31:53;;;;;;;13.68;7.18;;;;;;;8.31;100.00;100088.66;4926224;28;20069;-60
2023/10/27 07:34:24;;;;;;;13.25;7.45;;;;;;;8.31;100.00;100098.19;4915708;28;20113;-60
2023/10/27 07:36:55;;;;;;;12.27;8.30;;;;;;;8.27;100.00;100106.94;4924236;28;20997;-59
2023/10/27 07:39:25;;;;;;;12.05;6.13;;;;;;;8.15;100.00;100113.09;4914571;28;20059;-60
2023/10/27 07:41:57;;;;;;;12.25;6.50;;;;;;;8.03;100.00;100114.06;4924320;28;20194;-60
2023/10/27 07:44:28;;;;;;;15.82;6.35;;;;;;;7.92;100.00;100126.31;4912589;28;20117;-60
2023/10/27 07:46:59;;;;;;;15.68;7.25;;;;;;;7.86;100.00;100121.13;4925249;28;21165;-60
2023/10/27 07:49:29;;;;;;;11.77;5.63;;;;;;;7.73;100.00;100120.38;4915705;28;20067;-60
2023/10/27 07:51:59;;;;;;;11.30;6.32;;;;;;;7.61;100.00;100126.50;4924813;28;20058;-60
2023/10/27 07:54:30;;;;;;;13.38;5.75;;;;;;;7.59;100.00;100123.06;4916017;28;20086;-60
2023/10/27 07:57:04;;;;;;;16.38;6.75;;;;;;;7.54;100.00;100136.09;4924625;28;20524;-60
2023/10/27 07:59:35;;;;;;;17.33;6.97;;;;;;;7.49;100.00;100129.22;4914287;28;20085;-59
2023/10/27 08:02:05;;;;;;;11.00;5.80;;;;;;;7.52;100.00;100147.38;4922514;28;20129;-59
2023/10/27 08:04:37;;;;;;;14.55;6.85;;;;;;;7.46;100.00;100143.09;4915079;28;20146;-59
2023/10/27 08:07:07;;;;;;;11.80;6.30;;;;;;;7.40;100.00;100144.84;4922604;28;20430;-59
2023/10/27 08:09:40;;;;;;;13.27;7.43;;;;;;;7.27;100.00;100150.09;4913506;28;20130;-59
2023/10/27 08:12:13;;;;;;;16.30;6.63;;;;;;;7.12;100.00;100140.63;4923850;28;20070;-59
2023/10/27 08:14:44;;;;;;;11.82;6.22;;;;;;;7.01;100.00;100138.94;4913828;28;20109;-59
2023/10/27 08:17:14;;;;;;;8.85;5.70;;;;;;;6.81;100.00;100126.88;4917961;28;20109;-60
2023/10/27 08:19:45;;;;;;;11.63;6.18;;;;;;;6.80;100.00;100135.56;4924358;28;20375;-59
2023/10/27 08:22:15;;;;;;;11.25;6.47;;;;;;;6.72;100.00;100132.13;4914738;28;20106;-60
2023/10/27 08:24:45;;;;;;;14.00;5.88;;;;;;;6.65;100.00;100140.81;4924244;28;20051;-59
2023/10/27 08:27:17;;;;;;;9.05;5.43;;;;;;;6.67;100.00;100162.44;4914669;28;20074;-59
2023/10/27 08:29:48;;;;;;;11.15;5.72;;;;;;;6.66;100.00;100155.50;4924707;28;20047;-59
2023/10/27 08:32:18;;;;;;;11.00;5.97;;;;;;;6.66;100.00;100160.69;4913810;28;20051;-60
2023/10/27 08:34:49;;;;;;;7.82;5.40;;;;;;;6.63;100.00;100158.09;4924049;28;20416;-60
2023/10/27 08:37:19;;;;;;;11.07;5.40;;;;;;;6.57;100.00;100163.31;4913884;28;20059;-60
2023/10/27 08:39:50;;;;;;;11.63;5.20;;;;;;;6.55;100.00;100165.06;4923471;28;21204;-59
2023/10/27 08:42:22;;;;;;;8.85;4.60;;;;;;;6.53;100.00;100167.63;4914177;28;20051;-60
2023/10/27 08:44:53;;;;;;;7.80;4.60;;;;;;;6.53;100.00;100177.16;4923771;28;20061;-60
2023/10/27 08:47:23;;;;;;;9.60;5.05;;;;;;;6.50;100.00;100172.84;4913782;28;20059;-60
2023/10/27 08:49:54;;;;;;;10.18;5.25;;;;;;;6.50;100.00;100187.56;4923999;28;20544;-59
2023/10/27 08:52:25;;;;;;;12.82;5.45;;;;;;;6.46;100.00;100182.38;4914096;28;20051;-60
2023/10/27 08:54:56;;;;;;;12.93;6.15;;;;;;;6.38;100.00;100178.91;4923410;28;20051;-60
2023/10/27 08:57:28;;;;;;;13.57;6.95;;;;;;;6.41;100.00;100184.09;4913970;28;20093;-60
2023/10/27 08:59:58;;;;;;;16.38;9.68;;;;;;;6.15;100.00;100154.72;4923617;28;20077;-60
2023/10/27 09:02:32;;;;;;;37.72;21.85;;;;;;;6.36;100.00;100193.59;4913949;28;20052;-59
2023/10/27 09:05:06;;;;;;;34.60;19.85;;;;;;;6.36;100.00;100191.00;4923808;28;20058;-60
2023/10/27 09:07:37;;;;;;;22.63;12.07;;;;;;;6.07;100.00;100156.44;4913476;28;20760;-59
2023/10/27 09:10:09;;;;;;;11.88;8.02;;;;;;;6.21;100.00;100185.81;4923400;28;20051;-60
2023/10/27 09:12:41;;;;;;;15.00;6.10;;;;;;;6.24;100.00;100209.16;4912650;28;20078;-60
2023/10/27 09:15:13;;;;;;;7.50;5.50;;;;;;;6.21;100.00;100211.78;4923059;28;20077;-60
2023/10/27 09:17:53;;;;;;;11.18;5.05;;;;;;;6.13;100.00;100208.31;4913677;28;20070;-60
2023/10/27 09:20:25;;;;;;;8.90;4.68;;;;;;;6.04;100.00;100215.22;4913832;28;20086;-59
2023/10/27 09:22:59;;;;;;;8.40;5.00;;;;;;;5.92;100.00;100215.19;4923693;28;20113;-59
2023/10/27 09:25:31;;;;;;;12.77;4.32;;;;;;;5.86;100.00;100217.75;4912770;28;20291;-59
2023/10/27 09:28:05;;;;;;;12.55;4.78;;;;;;;5.86;100.00;100225.53;4924391;28;20054;-59
2023/10/27 09:30:38;;;;;;;10.70;5.22;;;;;;;5.90;100.00;100221.22;4914015;28;20051;-60
2023/10/27 09:33:18;;;;;;;15.80;8.88;;;;;;;5.85;100.00;100229.00;4923033;28;20115;-59
2023/10/27 09:35:49;;;;;;;15.32;7.50;;;;;;;5.62;100.00;100206.47;4913521;28;20063;-61
2023/10/27 09:38:20;;;;;;;18.77;7.30;;;;;;;5.74;100.00;100230.69;4913336;28;20227;-60
2023/10/27 09:40:53;;;;;;;14.05;8.30;;;;;;;5.70;100.00;100232.41;4924203;28;20051;-60
2023/10/27 09:43:25;;;;;;;15.50;7.80;;;;;;;5.78;100.00;100240.22;4913806;28;20055;-59
2023/10/27 09:45:56;;;;;;;14.20;7.18;;;;;;;5.78;100.00;100247.97;4923498;28;20900;-60
2023/10/27 09:48:28;;;;;;;10.95;5.35;;;;;;;5.80;100.00;100246.25;4913426;28;20055;-60
2023/10/27 09:51:04;;;;;;;7.35;4.88;;;;;;;5.63;100.00;100228.91;4923140;28;20058;-60
2023/10/27 09:53:37;;;;;;;8.25;4.85;;;;;;;5.67;100.00;100239.31;4914178;28;20181;-61
2023/10/27 09:56:09;;;;;;;10.32;5.05;;;;;;;5.58;100.00;100240.16;4923570;28;20054;-60
2023/10/27 09:58:42;;;;;;;7.65;4.88;;;;;;;5.53;100.00;100249.63;4912438;28;20141;-60
2023/10/27 10:01:12;;;;;;;7.55;5.55;;;;;;;5.48;100.00;100252.19;4922819;28;20086;-61
2023/10/27 10:03:43;;;;;;;12.65;7.13;;;;;;;5.38;100.00;100253.88;4912710;28;20424;-61
2023/10/27 10:06:15;;;;;;;7.15;3.90;;;;;;;5.40;100.00;100264.25;4917800;28;20083;-61
2023/10/27 10:09:10;;;;;;;6.50;4.03;;;;;;;5.41;100.00;100268.56;4922739;28;20155;-61
2023/10/27 10:11:55;;;;;;;6.65;3.08;;;;;;;5.37;100.00;100266.84;4912801;28;20078;-61
2023/10/27 10:14:50;;;;;;;6.00;3.70;;;;;;;5.45;100.00;100265.16;4913514;28;20425;-61
2023/10/27 10:17:42;;;;;;;4.28;2.90;;;;;;;5.27;100.00;100265.06;4912577;28;20162;-61
2023/10/27 10:20:12;;;;;;;7.45;3.70;;;;;;;5.21;100.00;100281.44;4922962;28;20501;-61
2023/10/27 10:23:00;;;;;;;7.30;3.80;;;;;;;5.22;100.00;100282.28;4912306;28;20150;-61
2023/10/27 10:25:31;;;;;;;7.00;4.05;;;;;;;5.22;100.00;100277.09;4912985;28;20141;-61
2023/10/27 10:28:29;;;;;;;8.18;4.20;;;;;;;5.10;100.00;100270.16;4923318;28;20166;-61
2023/10/27 10:31:27;;;;;;;9.10;4.13;;;;;;;5.09;100.00;100282.25;4922116;28;20071;-60
2023/10/27 10:34:11;;;;;;;5.30;3.50;;;;;;;5.11;100.00;100296.03;4922348;28;20718;-60
2023/10/27 10:36:42;;;;;;;8.75;3.60;;;;;;;5.05;100.00;100301.19;4912101;28;20159;-61
2023/10/27 10:39:13;;;;;;;5.60;3.30;;;;;;;4.93;100.00;100311.47;4922539;28;20077;-60
2023/10/27 10:42:03;;;;;;;6.95;3.83;;;;;;;4.93;100.00;100311.47;4912322;28;20394;-60
2023/10/27 10:44:34;;;;;;;6.03;3.33;;;;;;;4.90;100.00;100312.31;4913168;28;20064;-61
2023/10/27 10:47:18;;;;;;;7.25;3.75;;;;;;;4.95;100.00;100314.94;4922592;28;20134;-61
2023/10/27 10:49:48;;;;;;;7.60;3.78;;;;;;;4.99;100.00;100319.25;4912563;28;20050;-60
2023/10/27 10:52:22;;;;;;;5.57;3.40;;;;;;;5.00;100.00;100318.44;4911486;28;20047;-60
2023/10/27 10:54:53;;;;;;;5.40;3.40;;;;;;;5.00;100.00;100318.44;4919461;28;20059;-61
2023/10/27 10:57:24;;;;;;;8.57;4.65;;;;;;;4.98;100.00;100314.97;4911806;28;20488;-60
2023/10/27 10:59:55;;;;;;;9.60;3.92;;;;;;;5.02;99.68;100332.25;4920978;28;20069;-61
2023/10/27 11:02:27;;;;;;;8.05;3.38;;;;;;;5.05;99.46;100332.28;4912600;28;20162;-62
2023/10/27 11:04:57;;;;;;;9.82;4.10;;;;;;;5.04;98.72;100335.72;4922529;28;20059;-61
2023/10/27 11:07:28;;;;;;;6.28;3.55;;;;;;;5.01;97.59;100337.41;4912527;28;20082;-61
2023/10/27 11:10:19;;;;;;;6.82;3.45;;;;;;;5.02;96.51;100347.78;4922020;28;20151;-61
2023/10/27 11:12:52;;;;;;;11.82;3.40;;;;;;;5.00;95.66;100346.91;4912595;28;20063;-61
2023/10/27 11:15:44;;;;;;;12.45;8.75;;;;;;;4.95;96.58;100351.19;4912122;28;20054;-61
2023/10/27 11:18:19;;;;;;;16.05;7.75;;;;;;;4.83;99.20;100354.53;4911919;28;20118;-62
2023/10/27 11:20:50;;;;;;;9.10;4.90;;;;;;;4.75;100.00;100357.06;4921889;28;20116;-61
2023/10/27 11:23:20;;;;;;;11.65;3.55;;;;;;;4.65;100.00;100352.66;4912141;28;20058;-61
2023/10/27 11:26:01;;;;;;;6.93;3.50;;;;;;;4.62;100.00;100359.50;4921930;28;20075;-61
2023/10/27 11:28:32;;;;;;;6.57;3.90;;;;;;;4.54;100.00;100341.31;4910989;28;20161;-61
2023/10/27 11:31:07;;;;;;;5.93;3.88;;;;;;;4.56;100.00;100362.06;4921047;28;20635;-61
2023/10/27 11:34:00;;;;;;;9.77;4.15;;;;;;;4.52;100.00;100361.16;4910698;28;20059;-61
2023/10/27 11:36:33;;;;;;;8.18;4.25;;;;;;;4.46;100.00;100366.28;4914481;28;20055;-61
2023/10/27 11:39:17;;;;;;;6.65;4.13;;;;;;;4.42;100.00;100365.38;4925465;28;20605;-61